createdAt,value
2019-03-17T00:00:06.390Z,2.40
2019-03-17T00:02:34.578Z,2.50
2019-03-17T00:05:02.722Z,2.20
2019-03-17T00:07:30.854Z,2.33
2019-03-17T00:09:59.327Z,2.37
2019-03-17T00:12:27.468Z,2.40
2019-03-17T00:15:04.636Z,2.37
2019-03-17T00:17:25.420Z,2.23
2019-03-17T00:19:53.600Z,2.20
2019-03-17T00:22:21.805Z,2.23
2019-03-17T00:24:50.052Z,2.17
2019-03-17T00:27:18.200Z,2.10
2019-03-17T00:29:46.364Z,2.70
2019-03-17T00:32:14.530Z,2.87
2019-03-17T00:34:44.313Z,2.97
2019-03-17T00:37:12.456Z,2.77
2019-03-17T00:39:40.736Z,2.40
2019-03-17T00:42:10.134Z,2.40
2019-03-17T00:44:38.262Z,3.13
2019-03-17T00:47:06.513Z,2.43
2019-03-17T00:49:34.664Z,2.73
2019-03-17T00:52:03.068Z,3.23
2019-03-17T00:54:31.241Z,2.67
2019-03-17T00:56:59.396Z,2.67
2019-03-17T00:59:27.543Z,3.67
2019-03-17T01:01:55.708Z,3.27
2019-03-17T01:04:23.851Z,3.27
2019-03-17T01:06:51.989Z,2.70
2019-03-17T01:09:20.230Z,3.63
2019-03-17T01:11:48.376Z,3.80
2019-03-17T01:14:18.203Z,4.10
2019-03-17T01:16:52.219Z,3.93
2019-03-17T01:19:16.137Z,3.83
2019-03-17T01:21:46.199Z,4.07
2019-03-17T01:24:15.304Z,3.97
2019-03-17T01:26:43.451Z,3.93
2019-03-17T01:29:13.650Z,4.23
2019-03-17T01:31:44.192Z,4.13
2019-03-17T01:34:15.031Z,4.00
2019-03-17T01:36:43.174Z,3.67
2019-03-17T01:39:15.512Z,3.70
2019-03-17T01:41:49.610Z,4.00
2019-03-17T01:44:13.474Z,3.97
2019-03-17T01:46:41.640Z,3.50
2019-03-17T01:49:10.768Z,4.17
2019-03-17T01:51:38.908Z,3.93
2019-03-17T01:54:08.586Z,5.25
2019-03-17T01:56:37.541Z,4.70
2019-03-17T01:59:05.885Z,4.50
2019-03-17T02:01:34.416Z,4.33
2019-03-17T02:04:03.947Z,4.07
2019-03-17T02:06:34.035Z,4.70
2019-03-17T02:09:06.785Z,4.97
2019-03-17T02:11:37.443Z,5.70
2019-03-17T02:14:05.589Z,4.97
2019-03-17T02:16:35.387Z,4.90
2019-03-17T02:19:03.524Z,6.33
2019-03-17T02:21:32.665Z,6.47
2019-03-17T02:24:03.863Z,5.90
2019-03-17T02:26:34.038Z,5.37
2019-03-17T02:29:02.191Z,5.20
2019-03-17T02:31:32.855Z,5.37
2019-03-17T02:34:01.888Z,5.17
2019-03-17T02:36:30.038Z,6.50
2019-03-17T02:38:58.173Z,5.60
2019-03-17T02:41:26.318Z,5.80
2019-03-17T02:44:01.948Z,5.20
2019-03-17T02:46:30.957Z,5.07
2019-03-17T02:49:03.832Z,4.90
2019-03-17T02:51:35.429Z,6.40
2019-03-17T02:54:12.456Z,4.23
2019-03-17T02:56:47.679Z,3.07
2019-03-17T03:02:01.837Z,2.60
2019-03-17T03:04:30.021Z,2.47
2019-03-17T03:06:58.149Z,1.97
2019-03-17T03:09:28.238Z,2.07
2019-03-17T03:11:58.929Z,2.90
2019-03-17T03:14:28.051Z,2.00
2019-03-17T03:16:56.189Z,3.00
2019-03-17T03:19:24.361Z,2.97
2019-03-17T03:21:55.002Z,1.33
2019-03-17T03:24:24.861Z,0.90
2019-03-17T03:26:59.077Z,0.90
2019-03-17T03:29:42.289Z,1.00
2019-03-17T03:32:13.989Z,1.13
2019-03-17T03:34:49.328Z,1.23
2019-03-17T03:37:24.671Z,1.13
2019-03-17T03:39:58.109Z,1.03
2019-03-17T03:42:29.455Z,1.00
2019-03-17T03:45:05.233Z,1.30
2019-03-17T03:47:33.397Z,1.50
2019-03-17T03:50:01.538Z,1.20
2019-03-17T03:52:35.670Z,1.23
2019-03-17T03:55:05.103Z,1.37
2019-03-17T03:57:58.456Z,1.63
2019-03-17T04:00:28.316Z,1.20
2019-03-17T04:02:59.276Z,1.40
2019-03-17T04:05:32.545Z,1.30
2019-03-17T04:07:59.992Z,1.30
2019-03-17T04:10:31.300Z,1.67
2019-03-17T04:13:01.128Z,1.30
2019-03-17T04:15:35.692Z,1.23
2019-03-17T04:18:07.704Z,1.57
2019-03-17T04:23:12.950Z,1.17
2019-03-17T04:25:44.915Z,1.17
2019-03-17T04:28:15.732Z,0.90
2019-03-17T04:30:54.451Z,0.80
2019-03-17T04:33:25.736Z,1.30
2019-03-17T04:36:04.631Z,0.70
2019-03-17T04:38:32.822Z,1.53
2019-03-17T04:41:01.052Z,1.37
2019-03-17T04:43:29.188Z,1.50
2019-03-17T04:46:00.497Z,1.60
2019-03-17T04:48:30.552Z,1.50
2019-03-17T04:51:01.533Z,1.67
2019-03-17T04:53:33.918Z,1.13
2019-03-17T04:56:02.101Z,1.40
2019-03-17T04:58:41.964Z,1.17
2019-03-17T05:01:12.411Z,1.30
2019-03-17T05:03:41.730Z,1.60
2019-03-17T05:06:12.738Z,1.50
2019-03-17T05:08:43.640Z,1.20
2019-03-17T05:11:13.408Z,1.37
2019-03-17T05:13:41.546Z,1.40
2019-03-17T05:16:09.715Z,1.30
2019-03-17T05:18:39.935Z,1.40
2019-03-17T05:21:15.971Z,1.70
2019-03-17T05:23:45.132Z,2.00
2019-03-17T05:26:20.878Z,1.67
2019-03-17T05:31:51.263Z,1.80
2019-03-17T05:34:24.086Z,1.70
2019-03-17T05:37:05.450Z,2.00
2019-03-17T05:39:25.568Z,1.67
2019-03-17T05:41:56.878Z,1.47
2019-03-17T05:44:25.039Z,2.00
2019-03-17T05:46:55.441Z,1.70
2019-03-17T05:49:23.693Z,1.98
2019-03-17T05:51:53.479Z,1.63
2019-03-17T05:54:21.882Z,1.90
2019-03-17T05:56:50.035Z,1.97
2019-03-17T05:59:19.667Z,1.23
2019-03-17T06:01:48.265Z,2.17
2019-03-17T06:04:17.892Z,1.37
2019-03-17T06:06:51.600Z,1.80
2019-03-17T06:09:19.708Z,1.63
2019-03-17T06:11:47.865Z,2.20
2019-03-17T06:14:26.182Z,1.77
2019-03-17T06:16:54.797Z,1.80
2019-03-17T06:19:22.945Z,1.43
2019-03-17T06:21:51.086Z,1.37
2019-03-17T06:24:19.253Z,1.30
2019-03-17T06:26:47.398Z,1.20
2019-03-17T06:29:15.528Z,1.20
2019-03-17T06:31:43.708Z,1.63
2019-03-17T06:34:17.872Z,1.40
2019-03-17T06:36:51.472Z,1.57
2019-03-17T06:39:24.602Z,1.53
2019-03-17T06:41:54.425Z,1.57
2019-03-17T06:44:23.885Z,1.40
2019-03-17T06:46:54.076Z,2.13
2019-03-17T06:49:22.245Z,1.00
2019-03-17T06:51:52.852Z,1.20
2019-03-17T06:54:20.960Z,1.00
2019-03-17T06:56:49.136Z,1.60
2019-03-17T06:59:17.787Z,1.30
2019-03-17T07:01:47.481Z,1.70
2019-03-17T07:04:17.997Z,1.50
2019-03-17T07:06:46.587Z,1.73
2019-03-17T07:09:20.615Z,1.72
2019-03-17T07:12:06.722Z,1.10
2019-03-17T07:14:34.161Z,1.00
2019-03-17T07:17:10.184Z,1.07
2019-03-17T07:19:40.916Z,1.60
2019-03-17T07:22:21.473Z,1.10
2019-03-17T07:24:49.609Z,1.33
2019-03-17T07:27:37.400Z,1.60
2019-03-17T07:30:15.872Z,1.87
2019-03-17T07:32:45.958Z,1.10
2019-03-17T07:35:14.104Z,1.23
2019-03-17T07:37:42.247Z,0.90
2019-03-17T07:40:11.397Z,1.50
2019-03-17T07:42:39.545Z,1.63
2019-03-17T07:45:11.488Z,0.90
2019-03-17T07:47:39.653Z,1.20
2019-03-17T07:50:15.560Z,1.53
2019-03-17T07:52:43.717Z,1.50
2019-03-17T07:55:14.174Z,1.00
2019-03-17T07:57:44.868Z,1.37
2019-03-17T08:00:14.191Z,1.63
2019-03-17T08:02:45.504Z,1.70
2019-03-17T08:05:15.253Z,1.60
2019-03-17T08:07:48.036Z,1.33
2019-03-17T08:10:17.516Z,1.63
2019-03-17T08:12:45.680Z,2.40
2019-03-17T08:15:14.823Z,2.00
2019-03-17T08:17:42.953Z,1.47
2019-03-17T08:20:11.263Z,1.60
2019-03-17T08:22:39.611Z,1.57
2019-03-17T08:25:08.615Z,1.50
2019-03-17T08:27:36.769Z,1.70
2019-03-17T08:30:06.564Z,1.23
2019-03-17T08:32:34.714Z,1.37
2019-03-17T08:35:03.230Z,1.10
2019-03-17T08:37:31.411Z,1.23
2019-03-17T08:39:59.620Z,1.40
2019-03-17T08:42:27.760Z,1.67
2019-03-17T08:44:55.951Z,1.80
2019-03-17T08:47:24.162Z,1.07
2019-03-17T08:49:52.305Z,1.00
2019-03-17T08:52:20.498Z,1.00
2019-03-17T08:54:48.628Z,1.70
2019-03-17T08:57:39.321Z,1.77
2019-03-17T09:00:14.388Z,1.20
2019-03-17T09:02:42.580Z,1.40
2019-03-17T09:05:20.002Z,1.20
2019-03-17T09:07:51.153Z,1.67
2019-03-17T09:10:22.652Z,1.33
2019-03-17T09:13:04.050Z,1.40
2019-03-17T09:15:20.753Z,1.67
2019-03-17T09:17:48.904Z,0.70
2019-03-17T09:20:17.041Z,0.77
2019-03-17T09:22:45.204Z,0.70
2019-03-17T09:25:13.706Z,0.80
2019-03-17T09:27:41.845Z,1.00
2019-03-17T09:30:16.200Z,0.97
2019-03-17T09:32:44.484Z,0.90
2019-03-17T09:35:12.634Z,0.87
2019-03-17T09:37:41.914Z,0.83
2019-03-17T09:40:11.695Z,1.10
2019-03-17T09:42:43.142Z,1.00
2019-03-17T09:45:24.633Z,0.90
2019-03-17T09:47:58.147Z,1.10
2019-03-17T09:50:26.319Z,1.07
2019-03-17T09:52:54.466Z,0.90
2019-03-17T09:55:22.609Z,1.33
2019-03-17T09:57:50.777Z,1.17
2019-03-17T10:00:19.792Z,1.00
2019-03-17T10:02:47.940Z,1.13
2019-03-17T10:05:16.106Z,1.33
2019-03-17T10:07:44.261Z,1.20
2019-03-17T10:10:13.270Z,1.00
2019-03-17T10:12:41.508Z,1.43
2019-03-17T10:15:11.044Z,1.60
2019-03-17T10:17:39.679Z,0.90
2019-03-17T10:20:09.551Z,1.03
2019-03-17T10:22:39.796Z,1.07
2019-03-17T10:25:08.830Z,0.90
2019-03-17T10:27:37.052Z,0.83
2019-03-17T10:30:12.790Z,1.20
2019-03-17T10:32:40.967Z,0.90
2019-03-17T10:35:09.112Z,1.20
2019-03-17T10:37:37.240Z,1.00
2019-03-17T10:40:07.035Z,0.93
2019-03-17T10:42:39.439Z,1.03
2019-03-17T10:45:05.624Z,1.17
2019-03-17T10:47:33.788Z,0.93
2019-03-17T10:50:02.637Z,1.60
2019-03-17T10:52:30.743Z,0.97
2019-03-17T10:54:58.919Z,1.10
2019-03-17T10:57:27.080Z,1.20
2019-03-17T10:59:55.336Z,2.03
2019-03-17T11:02:23.506Z,1.17
2019-03-17T11:04:51.640Z,1.70
2019-03-17T11:07:20.132Z,1.30
2019-03-17T11:09:48.288Z,1.53
2019-03-17T11:12:16.422Z,1.30
2019-03-17T11:14:44.565Z,1.20
2019-03-17T11:17:12.738Z,2.23
2019-03-17T11:19:40.880Z,1.20
2019-03-17T11:22:09.019Z,0.90
2019-03-17T11:24:37.305Z,1.07
2019-03-17T11:27:05.750Z,1.03
2019-03-17T11:29:33.885Z,1.00
2019-03-17T11:32:02.040Z,1.00
2019-03-17T11:34:30.181Z,1.00
2019-03-17T11:36:58.312Z,1.17
2019-03-17T11:39:37.153Z,0.80
2019-03-17T11:41:58.906Z,0.80
2019-03-17T11:44:27.024Z,1.20
2019-03-17T11:46:55.175Z,0.90
2019-03-17T11:49:23.441Z,0.93
2019-03-17T11:51:51.572Z,1.03
2019-03-17T11:54:19.745Z,1.00
2019-03-17T11:56:47.936Z,1.00
2019-03-17T11:59:16.072Z,1.00
2019-03-17T12:04:33.124Z,0.90
2019-03-17T12:07:14.650Z,1.30
2019-03-17T12:09:34.093Z,1.30
2019-03-17T12:12:05.096Z,1.30
2019-03-17T12:14:36.311Z,1.30
2019-03-17T12:17:04.839Z,1.00
2019-03-17T12:19:33.010Z,1.20
2019-03-17T12:22:08.882Z,0.90
2019-03-17T12:24:35.476Z,1.10
2019-03-17T12:27:03.627Z,0.97
2019-03-17T12:29:31.986Z,1.00
2019-03-17T12:32:00.550Z,1.40
2019-03-17T12:34:28.828Z,1.10
2019-03-17T12:36:58.760Z,1.10
2019-03-17T12:39:27.338Z,1.43
2019-03-17T12:41:55.504Z,1.10
2019-03-17T12:44:25.160Z,0.87
2019-03-17T12:46:55.605Z,1.50
2019-03-17T12:49:25.438Z,1.10
2019-03-17T12:51:57.433Z,1.27
2019-03-17T12:54:27.223Z,1.43
2019-03-17T12:56:59.187Z,1.00
2019-03-17T12:59:27.908Z,1.30
2019-03-17T13:01:56.168Z,0.83
2019-03-17T13:04:25.050Z,1.07
2019-03-17T13:06:53.203Z,1.33
2019-03-17T13:09:22.558Z,1.10
2019-03-17T13:11:50.738Z,1.00
2019-03-17T13:14:21.567Z,1.00
2019-03-17T13:16:57.635Z,1.67
2019-03-17T13:19:26.717Z,0.80
2019-03-17T13:22:03.480Z,0.90
2019-03-17T13:24:35.768Z,1.00
2019-03-17T13:27:05.378Z,1.30
2019-03-17T13:29:37.728Z,1.10
2019-03-17T13:32:10.196Z,0.83
2019-03-17T13:34:39.735Z,0.77
2019-03-17T13:37:11.099Z,1.10
2019-03-17T13:39:39.247Z,1.17
2019-03-17T13:42:07.751Z,0.90
2019-03-17T13:44:37.962Z,0.97
2019-03-17T13:47:13.668Z,1.40
2019-03-17T13:49:43.029Z,1.30
2019-03-17T13:52:13.657Z,1.23
2019-03-17T13:54:41.804Z,1.00
2019-03-17T13:57:09.994Z,1.20
2019-03-17T13:59:40.924Z,1.30
2019-03-17T14:02:10.660Z,1.50
2019-03-17T14:04:38.933Z,0.80
2019-03-17T14:07:07.989Z,1.10
2019-03-17T14:09:38.194Z,1.20
2019-03-17T14:12:06.969Z,1.10
2019-03-17T14:14:35.120Z,1.00
2019-03-17T14:17:03.270Z,1.00
2019-03-17T14:19:34.506Z,0.97
2019-03-17T14:22:05.991Z,1.17
2019-03-17T14:24:41.318Z,1.30
2019-03-17T14:27:11.685Z,1.27
2019-03-17T14:29:41.657Z,1.07
2019-03-17T14:32:10.997Z,1.00
2019-03-17T14:34:41.505Z,1.20
2019-03-17T14:37:17.431Z,1.00
2019-03-17T14:39:47.676Z,0.90
2019-03-17T14:42:20.760Z,1.30
2019-03-17T14:44:58.066Z,1.10
2019-03-17T14:47:30.620Z,1.20
2019-03-17T14:49:58.772Z,1.37
2019-03-17T14:52:47.682Z,1.30
2019-03-17T14:55:47.491Z,0.80
2019-03-17T14:57:51.963Z,1.33
2019-03-17T15:00:24.543Z,1.23
2019-03-17T15:02:57.728Z,0.87
2019-03-17T15:05:30.521Z,1.10
2019-03-17T15:08:00.749Z,1.30
2019-03-17T15:10:30.807Z,1.50
2019-03-17T15:13:17.036Z,0.90
2019-03-17T15:16:02.246Z,1.00
2019-03-17T15:18:21.877Z,1.00
2019-03-17T15:20:52.870Z,0.80
2019-03-17T15:23:23.397Z,1.10
2019-03-17T15:25:51.581Z,1.27
2019-03-17T15:28:20.124Z,1.27
2019-03-17T15:31:05.497Z,1.20
2019-03-17T15:33:20.842Z,1.10
2019-03-17T15:35:49.220Z,1.10
2019-03-17T15:38:35.537Z,1.00
2019-03-17T15:41:03.676Z,0.97
2019-03-17T15:43:34.281Z,1.20
2019-03-17T15:46:04.149Z,1.20
2019-03-17T15:48:32.248Z,1.30
2019-03-17T15:51:19.167Z,1.13
2019-03-17T15:53:42.645Z,1.23
2019-03-17T15:56:12.791Z,0.90
2019-03-17T15:58:42.617Z,0.90
2019-03-17T16:01:10.865Z,1.63
2019-03-17T16:03:39.046Z,1.00
2019-03-17T16:06:07.193Z,1.07
2019-03-17T16:08:35.339Z,1.20
2019-03-17T16:11:03.545Z,1.30
2019-03-17T16:13:33.457Z,1.03
2019-03-17T16:16:03.448Z,0.80
2019-03-17T16:18:31.369Z,0.90
2019-03-17T16:20:59.526Z,1.20
2019-03-17T16:23:27.688Z,1.73
2019-03-17T16:25:55.873Z,0.73
2019-03-17T16:28:24.035Z,1.00
2019-03-17T16:30:52.160Z,0.77
2019-03-17T16:33:21.433Z,0.93
2019-03-17T16:35:49.638Z,1.10
2019-03-17T16:38:17.754Z,1.00
2019-03-17T16:40:45.976Z,1.23
2019-03-17T16:43:14.208Z,1.53
2019-03-17T16:45:51.515Z,1.20
2019-03-17T16:48:19.708Z,0.70
2019-03-17T16:50:47.853Z,0.90
2019-03-17T16:53:16.014Z,0.87
2019-03-17T16:55:44.196Z,1.10
2019-03-17T16:58:13.113Z,1.10
2019-03-17T17:00:41.252Z,1.33
2019-03-17T17:03:09.436Z,1.10
2019-03-17T17:05:39.643Z,2.50
2019-03-17T17:08:07.789Z,0.83
2019-03-17T17:10:38.339Z,1.03
2019-03-17T17:13:05.813Z,1.33
2019-03-17T17:15:34.841Z,0.93
2019-03-17T17:18:04.282Z,1.40
2019-03-17T17:20:32.853Z,1.47
2019-03-17T17:23:00.941Z,1.27
2019-03-17T17:25:29.478Z,1.03
2019-03-17T17:27:57.622Z,1.43
2019-03-17T17:33:43.365Z,1.00
2019-03-17T17:36:09.412Z,1.20
2019-03-17T17:38:41.787Z,1.50
2019-03-17T17:41:11.209Z,1.30
2019-03-17T17:43:39.749Z,1.00
2019-03-17T17:46:08.237Z,1.43
2019-03-17T17:48:36.374Z,1.00
2019-03-17T17:51:04.828Z,1.97
2019-03-17T17:53:33.079Z,1.30
2019-03-17T17:56:01.213Z,0.80
2019-03-17T17:58:29.400Z,1.23
2019-03-17T18:00:59.208Z,1.40
2019-03-17T18:03:27.350Z,1.10
2019-03-17T18:05:55.637Z,1.27
2019-03-17T18:08:23.878Z,1.50
2019-03-17T18:10:52.017Z,1.50
2019-03-17T18:13:20.160Z,1.43
2019-03-17T18:15:48.464Z,1.23
2019-03-17T18:18:16.600Z,1.60
2019-03-17T18:20:44.740Z,1.10
2019-03-17T18:23:18.031Z,1.00
2019-03-17T18:25:43.070Z,0.90
2019-03-17T18:28:11.201Z,1.47
2019-03-17T18:30:39.800Z,1.30
2019-03-17T18:33:07.945Z,1.20
2019-03-17T18:35:36.090Z,0.93
2019-03-17T18:38:04.649Z,1.20
2019-03-17T18:40:33.059Z,0.80
2019-03-17T18:43:01.200Z,0.70
2019-03-17T18:45:30.251Z,1.17
2019-03-17T18:47:58.495Z,0.87
2019-03-17T18:50:26.639Z,0.70
2019-03-17T18:52:54.791Z,0.77
2019-03-17T18:55:22.932Z,1.13
2019-03-17T18:57:52.711Z,1.50
2019-03-17T19:00:22.579Z,1.00
2019-03-17T19:02:50.718Z,1.30
2019-03-17T19:05:20.280Z,1.30
2019-03-17T19:07:48.827Z,1.47
2019-03-17T19:10:20.802Z,1.40
2019-03-17T19:12:48.955Z,1.50
2019-03-17T19:15:18.930Z,1.57
2019-03-17T19:17:47.041Z,1.60
2019-03-17T19:20:16.817Z,1.70
2019-03-17T19:22:44.975Z,1.70
2019-03-17T19:25:16.844Z,2.07
2019-03-17T19:27:44.992Z,1.90
2019-03-17T19:30:14.233Z,2.20
2019-03-17T19:32:42.388Z,1.90
2019-03-17T19:35:10.560Z,1.33
2019-03-17T19:37:38.753Z,1.60
2019-03-17T19:40:08.646Z,1.70
2019-03-17T19:42:36.797Z,1.83
2019-03-17T19:45:05.726Z,1.23
2019-03-17T19:47:33.927Z,1.60
2019-03-17T19:50:02.127Z,1.60
2019-03-17T19:52:30.373Z,1.67
2019-03-17T19:54:58.530Z,1.77
2019-03-17T19:57:26.665Z,1.80
2019-03-17T19:59:55.071Z,1.80
2019-03-17T20:02:23.323Z,1.27
2019-03-17T20:04:51.489Z,1.53
2019-03-17T20:07:19.800Z,1.00
2019-03-17T20:09:47.996Z,1.77
2019-03-17T20:12:16.145Z,1.50
2019-03-17T20:14:44.392Z,1.37
2019-03-17T20:17:12.528Z,1.83
2019-03-17T20:19:40.800Z,1.70
2019-03-17T20:22:09.156Z,1.57
2019-03-17T20:24:37.247Z,1.57
2019-03-17T20:27:05.539Z,2.03
2019-03-17T20:29:33.749Z,1.73
2019-03-17T20:32:02.017Z,1.70
2019-03-17T20:34:30.166Z,1.30
2019-03-17T20:36:58.527Z,1.57
2019-03-17T20:39:26.721Z,2.12
2019-03-17T20:41:54.882Z,2.03
2019-03-17T20:44:24.013Z,1.40
2019-03-17T20:46:52.172Z,1.67
2019-03-17T20:49:20.382Z,1.90
2019-03-17T20:51:49.087Z,1.20
2019-03-17T20:54:17.220Z,1.60
2019-03-17T20:56:45.421Z,1.73
2019-03-17T20:59:13.556Z,1.60
2019-03-17T21:01:41.808Z,1.80
2019-03-17T21:04:10.060Z,1.70
2019-03-17T21:06:38.290Z,1.53
2019-03-17T21:09:07.706Z,1.37
2019-03-17T21:11:35.827Z,1.10
2019-03-17T21:14:04.112Z,1.87
2019-03-17T21:16:32.300Z,1.60
2019-03-17T21:19:00.436Z,1.53
2019-03-17T21:21:28.613Z,1.50
2019-03-17T21:23:56.745Z,1.53
2019-03-17T21:26:25.250Z,1.97
2019-03-17T21:28:53.432Z,1.03
2019-03-17T21:31:21.644Z,1.83
2019-03-17T21:33:49.811Z,1.30
2019-03-17T21:36:18.147Z,1.10
2019-03-17T21:38:46.397Z,1.30
2019-03-17T21:41:14.982Z,2.07
2019-03-17T21:43:43.137Z,1.40
2019-03-17T21:46:11.268Z,1.20
2019-03-17T21:48:39.703Z,1.83
2019-03-17T21:51:07.889Z,1.47
2019-03-17T21:53:36.080Z,2.03
2019-03-17T21:56:04.219Z,1.30
2019-03-17T21:58:32.400Z,1.70
2019-03-17T22:01:00.534Z,2.60
2019-03-17T22:03:28.665Z,1.50
2019-03-17T22:05:56.844Z,1.80
2019-03-17T22:08:24.992Z,2.00
2019-03-17T22:10:53.124Z,1.50
2019-03-17T22:13:21.342Z,1.40
2019-03-17T22:15:49.476Z,2.00
2019-03-17T22:18:17.923Z,2.03
2019-03-17T22:20:46.112Z,1.60
2019-03-17T22:23:14.240Z,1.63
2019-03-17T22:25:45.205Z,1.73
2019-03-17T22:28:26.560Z,1.63
2019-03-17T22:30:56.769Z,1.93
2019-03-17T22:33:25.054Z,1.40
2019-03-17T22:35:53.254Z,1.50
2019-03-17T22:38:21.418Z,1.70
2019-03-17T22:40:49.807Z,1.17
2019-03-17T22:43:18.362Z,1.13
2019-03-17T22:45:46.810Z,1.73
2019-03-17T22:48:14.999Z,1.13
2019-03-17T22:50:43.138Z,1.60
2019-03-17T22:53:11.295Z,1.50
2019-03-17T22:55:39.469Z,1.40
2019-03-17T22:58:07.688Z,2.13
2019-03-17T23:00:37.461Z,1.50
2019-03-17T23:03:05.672Z,2.73
2019-03-17T23:05:33.819Z,1.43
2019-03-17T23:08:01.987Z,1.50
2019-03-17T23:10:30.228Z,1.43
2019-03-17T23:12:58.389Z,1.77
2019-03-17T23:15:26.519Z,1.47
2019-03-17T23:17:54.781Z,1.77
2019-03-17T23:20:22.941Z,1.67
2019-03-17T23:22:51.585Z,1.20
2019-03-17T23:25:19.749Z,1.70
2019-03-17T23:27:47.897Z,1.90
2019-03-17T23:30:16.848Z,1.97
2019-03-17T23:32:49.198Z,1.37
2019-03-17T23:35:17.075Z,2.37
2019-03-17T23:37:45.209Z,1.57
2019-03-17T23:40:14.154Z,1.40
2019-03-17T23:42:42.533Z,1.53
2019-03-17T23:45:11.129Z,1.30
2019-03-17T23:47:39.317Z,1.80
2019-03-17T23:50:11.123Z,2.10
2019-03-17T23:52:39.278Z,1.40
2019-03-17T23:55:09.989Z,1.93
2019-03-17T23:57:38.134Z,2.67
